createdAt,value
2022-12-04T00:00:48.833Z,22.10
2022-12-04T00:05:51.800Z,22.07
2022-12-04T00:10:55.991Z,22.04
2022-12-04T00:15:59.284Z,22.01
2022-12-04T00:21:33.018Z,22.00
2022-12-04T00:26:37.261Z,22.01
2022-12-04T00:31:41.487Z,21.98
2022-12-04T00:36:44.962Z,21.96
2022-12-04T00:41:49.250Z,21.95
2022-12-04T00:46:52.058Z,21.93
2022-12-04T00:51:54.854Z,21.91
2022-12-04T00:56:58.965Z,21.90
2022-12-04T01:02:01.810Z,21.90
2022-12-04T01:07:05.405Z,21.90
2022-12-04T01:12:09.706Z,21.90
2022-12-04T01:17:12.544Z,21.90
2022-12-04T01:22:15.989Z,21.89
2022-12-04T01:27:20.291Z,21.89
2022-12-04T01:32:23.258Z,21.89
2022-12-04T01:37:26.186Z,21.88
2022-12-04T01:42:30.441Z,21.87
2022-12-04T01:47:33.728Z,21.87
2022-12-04T01:52:36.647Z,21.86
2022-12-04T01:57:40.814Z,21.86
2022-12-04T02:02:48.120Z,21.86
2022-12-04T02:07:54.385Z,21.84
2022-12-04T02:13:06.749Z,21.85
2022-12-04T02:18:17.316Z,21.80
2022-12-04T02:23:53.332Z,21.80
2022-12-04T02:29:03.807Z,21.78
2022-12-04T02:34:13.277Z,21.80
2022-12-04T02:39:23.085Z,21.79
2022-12-04T02:44:30.759Z,21.77
2022-12-04T02:49:38.929Z,21.75
2022-12-04T02:54:46.912Z,21.76
2022-12-04T02:59:53.893Z,21.76
2022-12-04T03:04:59.996Z,21.77
2022-12-04T03:10:10.913Z,21.75
2022-12-04T03:15:18.849Z,21.85
2022-12-04T03:20:23.124Z,21.85
2022-12-04T03:25:34.009Z,21.88
2022-12-04T03:30:43.001Z,21.92
2022-12-04T03:35:50.909Z,21.96
2022-12-04T03:41:02.513Z,22.00
2022-12-04T03:46:12.698Z,22.02
2022-12-04T03:51:19.542Z,22.00
2022-12-04T03:56:25.583Z,22.01
2022-12-04T04:01:35.966Z,22.07
2022-12-04T04:06:43.161Z,22.08
2022-12-04T04:11:51.024Z,22.11
2022-12-04T04:17:18.004Z,22.10
2022-12-04T04:22:41.026Z,22.17
2022-12-04T04:27:44.241Z,22.21
2022-12-04T04:32:57.998Z,22.22
2022-12-04T04:38:14.413Z,22.26
2022-12-04T04:43:22.884Z,22.30
2022-12-04T04:48:32.988Z,22.29
2022-12-04T04:53:41.683Z,22.35
2022-12-04T04:58:45.005Z,22.38
2022-12-04T05:03:49.493Z,22.41
2022-12-04T05:08:52.278Z,22.42
2022-12-04T05:13:55.120Z,22.44
2022-12-04T05:19:17.006Z,22.45
2022-12-04T05:24:19.889Z,22.51
2022-12-04T05:29:22.709Z,22.50
2022-12-04T05:34:26.932Z,22.53
2022-12-04T05:39:29.843Z,22.54
2022-12-04T05:44:32.737Z,22.58
2022-12-04T05:49:37.283Z,22.58
2022-12-04T05:54:40.279Z,22.62
2022-12-04T05:59:43.241Z,22.65
2022-12-04T06:04:47.402Z,22.66
2022-12-04T06:09:50.115Z,22.67
2022-12-04T06:14:53.085Z,22.64
2022-12-04T06:19:57.727Z,22.68
2022-12-04T06:25:00.903Z,22.69
2022-12-04T06:30:04.115Z,22.67
2022-12-04T06:35:09.458Z,22.70
2022-12-04T06:40:12.700Z,22.69
2022-12-04T06:45:15.529Z,22.71
2022-12-04T06:50:19.939Z,22.67
2022-12-04T06:55:22.853Z,22.71
2022-12-04T07:00:25.665Z,22.73
2022-12-04T07:05:29.860Z,22.69
2022-12-04T07:10:32.709Z,22.70
2022-12-04T07:15:36.428Z,22.65
2022-12-04T07:20:42.457Z,22.64
2022-12-04T07:25:45.333Z,22.65
2022-12-04T07:30:48.116Z,22.63
2022-12-04T07:35:57.678Z,22.62
2022-12-04T07:41:01.459Z,22.56
2022-12-04T07:46:07.385Z,22.61
2022-12-04T07:51:13.330Z,22.62
2022-12-04T07:56:16.778Z,22.61
2022-12-04T08:01:21.173Z,22.60
2022-12-04T08:06:26.771Z,22.57
2022-12-04T08:16:33.600Z,21.78
2022-12-04T08:21:37.875Z,22.00
2022-12-04T08:26:40.664Z,22.27
2022-12-04T08:31:43.497Z,22.63
2022-12-04T08:36:47.699Z,22.85
2022-12-04T08:41:56.669Z,23.04
2022-12-04T08:46:59.939Z,23.19
2022-12-04T08:52:04.223Z,23.30
2022-12-04T08:57:07.383Z,23.35
2022-12-04T09:02:11.434Z,23.22
2022-12-04T09:07:15.534Z,23.10
2022-12-04T09:12:19.039Z,22.96
2022-12-04T09:17:22.004Z,22.87
2022-12-04T09:22:26.244Z,22.80
2022-12-04T09:27:29.201Z,22.75
2022-12-04T09:32:31.966Z,22.66
2022-12-04T09:37:37.592Z,22.61
2022-12-04T09:42:46.917Z,22.57
2022-12-04T09:47:53.196Z,22.53
2022-12-04T09:53:01.562Z,22.54
2022-12-04T09:58:07.693Z,22.50
2022-12-04T10:03:15.715Z,22.61
2022-12-04T10:08:23.760Z,22.78
2022-12-04T10:13:52.207Z,22.90
2022-12-04T10:19:04.192Z,23.10
2022-12-04T10:24:23.564Z,23.11
2022-12-04T10:29:31.570Z,23.04
2022-12-04T10:34:34.477Z,22.93
2022-12-04T10:39:45.587Z,22.81
2022-12-04T10:44:48.482Z,22.75
2022-12-04T10:50:00.011Z,22.79
2022-12-04T10:55:04.316Z,22.73
2022-12-04T11:00:25.625Z,22.68
2022-12-04T11:05:32.864Z,22.63
2022-12-04T11:10:40.587Z,22.58
2022-12-04T11:15:45.615Z,22.56
2022-12-04T11:20:54.575Z,22.53
2022-12-04T11:26:05.936Z,22.56
2022-12-04T11:31:11.382Z,22.64
2022-12-04T11:36:22.634Z,22.85
2022-12-04T11:41:28.855Z,23.04
2022-12-04T11:46:34.043Z,23.11
2022-12-04T11:51:51.323Z,23.26
2022-12-04T11:57:07.904Z,23.28
2022-12-04T12:02:31.991Z,23.21
2022-12-04T12:07:44.029Z,23.21
2022-12-04T12:13:02.432Z,23.08
2022-12-04T12:18:22.813Z,23.02
2022-12-04T12:23:46.822Z,22.91
2022-12-04T12:29:11.545Z,22.85
2022-12-04T12:34:21.405Z,22.76
2022-12-04T12:39:27.472Z,22.76
2022-12-04T12:44:37.973Z,22.67
2022-12-04T12:49:48.866Z,22.64
2022-12-04T12:54:57.305Z,22.66
2022-12-04T13:00:07.357Z,22.63
2022-12-04T13:05:12.536Z,22.64
2022-12-04T13:10:20.201Z,22.68
2022-12-04T13:15:30.809Z,22.83
2022-12-04T13:20:43.972Z,22.89
2022-12-04T13:25:58.254Z,23.08
2022-12-04T13:31:14.272Z,23.01
2022-12-04T13:36:30.641Z,22.95
2022-12-04T13:41:39.309Z,22.93
2022-12-04T13:46:53.520Z,22.84
2022-12-04T13:51:57.948Z,22.89
2022-12-04T13:57:19.768Z,22.77
2022-12-04T14:02:29.760Z,22.79
2022-12-04T14:07:35.555Z,22.87
2022-12-04T14:12:41.899Z,22.82
2022-12-04T14:17:59.199Z,22.71
2022-12-04T14:23:11.119Z,22.76
2022-12-04T14:28:24.252Z,22.83
2022-12-04T14:33:30.816Z,22.75
2022-12-04T14:38:34.201Z,22.65
2022-12-04T14:43:40.553Z,22.56
2022-12-04T14:48:53.984Z,22.61
2022-12-04T14:54:08.418Z,22.67
2022-12-04T14:59:18.401Z,22.81
2022-12-04T15:04:27.109Z,23.10
2022-12-04T15:09:47.744Z,23.20
2022-12-04T15:14:51.191Z,23.26
2022-12-04T15:19:55.319Z,23.18
2022-12-04T15:24:58.741Z,23.11
2022-12-04T15:30:03.837Z,22.96
2022-12-04T15:35:14.078Z,23.03
2022-12-04T15:40:22.265Z,23.15
2022-12-04T15:45:34.290Z,23.06
2022-12-04T15:50:38.409Z,23.00
2022-12-04T15:55:51.796Z,22.83
2022-12-04T16:00:57.354Z,22.82
2022-12-04T16:06:20.489Z,22.90
2022-12-04T16:11:35.836Z,22.99
2022-12-04T16:16:42.117Z,22.85
2022-12-04T16:21:46.988Z,22.78
2022-12-04T16:26:51.370Z,22.82
2022-12-04T16:31:58.243Z,22.88
2022-12-04T16:37:13.272Z,23.21
2022-12-04T16:42:18.771Z,23.33
2022-12-04T16:47:22.339Z,23.24
2022-12-04T16:52:26.644Z,23.26
2022-12-04T16:57:29.526Z,23.28
2022-12-04T17:02:32.651Z,23.10
2022-12-04T17:07:36.903Z,22.97
2022-12-04T17:12:39.837Z,22.93
2022-12-04T17:17:42.704Z,22.93
2022-12-04T17:22:46.847Z,22.91
2022-12-04T17:27:49.636Z,22.84
2022-12-04T17:32:52.917Z,22.80
2022-12-04T17:38:02.090Z,22.74
2022-12-04T17:43:08.382Z,22.72
2022-12-04T17:48:11.138Z,22.71
2022-12-04T17:53:15.718Z,22.71
2022-12-04T17:58:18.615Z,22.76
2022-12-04T18:03:21.486Z,22.74
2022-12-04T18:08:28.833Z,22.66
2022-12-04T18:13:31.917Z,22.69
2022-12-04T18:18:35.377Z,22.74
2022-12-04T18:23:45.132Z,22.83
2022-12-04T18:28:48.825Z,22.77
2022-12-04T18:33:52.188Z,22.82
2022-12-04T18:38:58.094Z,22.86
2022-12-04T18:44:00.918Z,22.83
2022-12-04T18:49:04.358Z,22.89
2022-12-04T18:54:11.754Z,22.88
2022-12-04T18:59:16.478Z,22.99
2022-12-04T19:04:21.992Z,22.96
2022-12-04T19:10:02.489Z,22.87
2022-12-04T19:14:52.501Z,22.92
2022-12-04T19:19:55.709Z,22.96
2022-12-04T19:25:00.098Z,22.88
2022-12-04T19:30:02.937Z,22.87
2022-12-04T19:35:06.195Z,22.85
2022-12-04T19:40:11.696Z,22.85
2022-12-04T19:45:14.897Z,22.86
2022-12-04T19:50:17.889Z,22.77
2022-12-04T19:55:22.134Z,22.84
2022-12-04T20:00:25.077Z,22.90
2022-12-04T20:05:28.028Z,22.89
2022-12-04T20:10:33.102Z,22.87
2022-12-04T20:15:36.611Z,22.90
2022-12-04T20:20:41.125Z,22.82
2022-12-04T20:25:45.485Z,22.87
2022-12-04T20:30:49.805Z,22.97
2022-12-04T20:35:52.740Z,22.79
2022-12-04T20:40:56.844Z,22.75
2022-12-04T20:46:00.053Z,22.76
2022-12-04T20:51:02.920Z,22.78
2022-12-04T20:56:08.215Z,22.73
2022-12-04T21:01:13.439Z,22.70
2022-12-04T21:06:19.694Z,22.77
2022-12-04T21:11:25.228Z,22.73
2022-12-04T21:16:28.179Z,22.74
2022-12-04T21:21:31.064Z,22.69
2022-12-04T21:26:35.729Z,22.66
2022-12-04T21:31:39.339Z,22.68
2022-12-04T21:36:42.632Z,22.66
2022-12-04T21:42:04.513Z,22.68
2022-12-04T21:47:07.333Z,22.72
2022-12-04T21:52:10.237Z,22.73
2022-12-04T21:57:14.458Z,22.71
2022-12-04T22:02:17.401Z,22.71
2022-12-04T22:07:20.244Z,22.63
2022-12-04T22:12:48.639Z,22.66
2022-12-04T22:17:47.176Z,22.58
2022-12-04T22:22:50.159Z,22.54
2022-12-04T22:27:55.200Z,22.47
2022-12-04T22:32:58.251Z,22.44
2022-12-04T22:38:01.121Z,22.44
2022-12-04T22:43:05.559Z,22.41
2022-12-04T22:48:08.362Z,22.36
2022-12-04T22:53:11.273Z,22.36
2022-12-04T22:58:15.577Z,22.36
2022-12-04T23:03:18.427Z,22.35
2022-12-04T23:08:21.310Z,22.37
2022-12-04T23:13:25.468Z,22.31
2022-12-04T23:18:28.572Z,22.35
2022-12-04T23:23:31.561Z,22.32
2022-12-04T23:28:36.388Z,22.28
2022-12-04T23:33:39.882Z,22.28
2022-12-04T23:38:44.415Z,22.21
2022-12-04T23:43:49.608Z,22.23
2022-12-04T23:48:52.542Z,22.18
2022-12-04T23:53:55.882Z,22.24
2022-12-04T23:59:00.038Z,22.21
